createdAt,value
2017-09-30T00:00:04.435Z,20.06
2017-09-30T00:01:04.331Z,20.04
2017-09-30T00:02:04.377Z,20.09
2017-09-30T00:03:04.387Z,20.06
2017-09-30T00:04:04.401Z,20.1
2017-09-30T00:05:04.426Z,19.96
2017-09-30T00:06:04.447Z,19.94
2017-09-30T00:07:04.545Z,19.76
2017-09-30T00:08:04.502Z,19.79
2017-09-30T00:09:04.527Z,19.85
2017-09-30T00:10:04.593Z,19.89
2017-09-30T00:11:04.570Z,19.91
2017-09-30T00:12:04.910Z,19.89
2017-09-30T00:13:04.650Z,19.89
2017-09-30T00:14:04.643Z,19.95
2017-09-30T00:15:04.712Z,19.95
2017-09-30T00:16:04.686Z,19.95
2017-09-30T00:17:04.710Z,19.91
2017-09-30T00:18:05.058Z,19.92
2017-09-30T00:19:04.836Z,19.85
2017-09-30T00:20:04.785Z,19.89
2017-09-30T00:21:04.892Z,19.88
2017-09-30T00:22:04.837Z,19.88
2017-09-30T00:23:04.850Z,19.91
2017-09-30T00:24:05.188Z,19.99
2017-09-30T00:25:05.220Z,19.88
2017-09-30T00:26:04.923Z,19.92
2017-09-30T00:27:04.946Z,19.88
2017-09-30T00:28:05.282Z,19.99
2017-09-30T00:29:05.067Z,19.92
2017-09-30T00:30:05.072Z,19.92
2017-09-30T00:31:05.128Z,19.91
2017-09-30T00:32:05.094Z,19.96
2017-09-30T00:33:05.100Z,19.95
2017-09-30T00:34:05.113Z,19.86
2017-09-30T00:35:05.146Z,19.99
2017-09-30T00:36:05.168Z,19.86
2017-09-30T00:37:05.826Z,19.88
2017-09-30T00:38:05.215Z,19.85
2017-09-30T00:39:05.232Z,20.02
2017-09-30T00:40:05.289Z,20.04
2017-09-30T00:41:05.366Z,19.91
2017-09-30T00:42:05.311Z,19.96
2017-09-30T00:43:05.333Z,19.91
2017-09-30T00:44:05.352Z,19.86
2017-09-30T00:45:05.379Z,19.88
2017-09-30T00:46:05.733Z,19.89
2017-09-30T00:47:05.421Z,19.94
2017-09-30T00:48:05.450Z,19.89
2017-09-30T00:49:05.527Z,19.79
2017-09-30T00:50:05.495Z,19.73
2017-09-30T00:51:05.517Z,19.79
2017-09-30T00:52:05.539Z,19.84
2017-09-30T00:53:05.572Z,19.79
2017-09-30T00:54:05.599Z,19.77
2017-09-30T00:55:05.684Z,19.79
2017-09-30T00:56:05.637Z,19.74
2017-09-30T00:57:05.666Z,19.84
2017-09-30T00:58:05.681Z,19.88
2017-09-30T00:59:05.720Z,19.73
2017-09-30T01:00:05.735Z,19.77
2017-09-30T01:01:05.776Z,19.7
2017-09-30T01:02:05.774Z,19.77
2017-09-30T01:03:05.958Z,19.73
2017-09-30T01:04:06.181Z,19.82
2017-09-30T01:05:05.857Z,19.73
2017-09-30T01:06:06.186Z,19.88
2017-09-30T01:07:05.894Z,19.77
2017-09-30T01:08:05.923Z,19.88
2017-09-30T01:09:05.968Z,19.88
2017-09-30T01:10:05.966Z,19.77
2017-09-30T01:11:06.003Z,19.84
2017-09-30T01:12:06.014Z,19.58
2017-09-30T01:13:06.349Z,19.7
2017-09-30T01:14:06.131Z,19.62
2017-09-30T01:15:06.085Z,19.52
2017-09-30T01:16:06.107Z,19.39
2017-09-30T01:17:06.131Z,19.39
2017-09-30T01:18:06.156Z,19.41
2017-09-30T01:19:06.184Z,19.4
2017-09-30T01:20:06.205Z,19.3
2017-09-30T01:21:06.226Z,19.44
2017-09-30T01:22:06.259Z,19.45
2017-09-30T01:23:06.275Z,19.59
2017-09-30T01:24:06.391Z,19.55
2017-09-30T01:25:06.447Z,19.59
2017-09-30T01:26:06.341Z,19.58
2017-09-30T01:27:06.682Z,19.63
2017-09-30T01:28:06.393Z,19.62
2017-09-30T01:29:06.428Z,19.55
2017-09-30T01:30:06.458Z,19.48
2017-09-30T01:31:06.803Z,19.45
2017-09-30T01:32:07.487Z,19.62
2017-09-30T01:33:06.504Z,19.59
2017-09-30T01:34:06.535Z,19.64
2017-09-30T01:35:06.978Z,19.59
2017-09-30T01:36:06.673Z,19.69
2017-09-30T01:37:06.956Z,19.64
2017-09-30T01:38:06.627Z,19.56
2017-09-30T01:39:06.671Z,19.55
2017-09-30T01:40:06.676Z,19.66
2017-09-30T01:41:06.723Z,19.58
2017-09-30T01:42:06.727Z,19.44
2017-09-30T01:43:06.749Z,19.37
2017-09-30T01:44:06.817Z,19.52
2017-09-30T01:45:06.787Z,19.4
2017-09-30T01:46:06.912Z,19.33
2017-09-30T01:47:06.969Z,19.44
2017-09-30T01:48:06.862Z,19.34
2017-09-30T01:49:07.202Z,19.31
2017-09-30T01:50:06.911Z,19.19
2017-09-30T01:51:06.938Z,19.19
2017-09-30T01:52:07.001Z,19.19
2017-09-30T01:53:06.981Z,19.22
2017-09-30T01:54:07.000Z,19.3
2017-09-30T01:55:07.333Z,19.19
2017-09-30T01:56:07.053Z,19.15
2017-09-30T01:57:07.073Z,19.21
2017-09-30T01:58:07.737Z,19.11
2017-09-30T01:59:07.119Z,19.16
2017-09-30T02:00:07.140Z,19.09
2017-09-30T02:01:07.164Z,19.15
2017-09-30T02:02:07.493Z,19.16
2017-09-30T02:03:07.222Z,19.15
2017-09-30T02:04:07.253Z,19.16
2017-09-30T02:05:07.271Z,19.18
2017-09-30T02:06:07.288Z,19.16
2017-09-30T02:07:07.354Z,19.24
2017-09-30T02:08:07.888Z,19.29
2017-09-30T02:09:07.346Z,19.22
2017-09-30T02:10:07.390Z,19.18
2017-09-30T02:11:07.397Z,19.22
2017-09-30T02:12:07.421Z,19.15
2017-09-30T02:13:07.440Z,19.33
2017-09-30T02:14:07.465Z,19.21
2017-09-30T02:15:07.932Z,19.15
2017-09-30T02:16:07.510Z,19.15
2017-09-30T02:17:07.536Z,19.12
2017-09-30T02:18:07.874Z,19.15
2017-09-30T02:19:07.882Z,19.18
2017-09-30T02:20:07.920Z,19.16
2017-09-30T02:21:07.631Z,19.12
2017-09-30T02:22:07.965Z,19.15
2017-09-30T02:23:07.675Z,19.07
2017-09-30T02:24:07.751Z,19.19
2017-09-30T02:25:07.727Z,19.09
2017-09-30T02:26:07.759Z,19.09
2017-09-30T02:27:07.769Z,18.93
2017-09-30T02:28:08.103Z,18.98
2017-09-30T02:29:08.242Z,18.86
2017-09-30T02:30:08.158Z,18.9
2017-09-30T02:31:07.858Z,18.78
2017-09-30T02:32:07.884Z,18.77
2017-09-30T02:33:07.909Z,18.83
2017-09-30T02:34:08.248Z,18.75
2017-09-30T02:35:08.274Z,18.73
2017-09-30T02:36:07.975Z,18.77
2017-09-30T02:37:07.999Z,18.8
2017-09-30T02:38:08.024Z,18.75
2017-09-30T02:39:08.173Z,18.71
2017-09-30T02:40:08.407Z,18.71
2017-09-30T02:41:08.107Z,18.75
2017-09-30T02:42:08.109Z,18.84
2017-09-30T02:43:08.138Z,18.73
2017-09-30T02:44:08.482Z,18.8
2017-09-30T02:45:08.181Z,18.86
2017-09-30T02:46:08.530Z,18.77
2017-09-30T02:47:08.535Z,18.77
2017-09-30T02:48:08.253Z,18.74
2017-09-30T02:49:08.479Z,18.75
2017-09-30T02:50:08.319Z,18.84
2017-09-30T02:51:08.320Z,18.74
2017-09-30T02:52:08.339Z,18.77
2017-09-30T02:53:08.379Z,18.73
2017-09-30T02:54:08.781Z,18.75
2017-09-30T02:55:08.408Z,18.75
2017-09-30T02:56:08.755Z,18.68
2017-09-30T02:57:08.774Z,18.74
2017-09-30T02:58:08.496Z,18.78
2017-09-30T02:59:08.657Z,18.77
2017-09-30T03:00:08.524Z,18.77
2017-09-30T03:01:08.547Z,18.73
2017-09-30T03:02:08.571Z,18.96
2017-09-30T03:03:08.591Z,18.81
2017-09-30T03:04:08.681Z,18.81
2017-09-30T03:05:08.995Z,18.84
2017-09-30T03:06:08.972Z,18.83
2017-09-30T03:07:08.684Z,18.8
2017-09-30T03:08:08.704Z,18.84
2017-09-30T03:09:08.734Z,18.9
2017-09-30T03:10:08.892Z,18.86
2017-09-30T03:11:08.828Z,18.78
2017-09-30T03:12:08.796Z,18.96
2017-09-30T03:13:08.821Z,18.9
2017-09-30T03:14:08.990Z,18.77
2017-09-30T03:15:08.877Z,18.74
2017-09-30T03:16:08.895Z,18.73
2017-09-30T03:17:08.917Z,18.77
2017-09-30T03:18:08.934Z,18.75
2017-09-30T03:19:09.315Z,18.8
2017-09-30T03:20:09.084Z,18.78
2017-09-30T03:21:09.009Z,18.78
2017-09-30T03:22:09.027Z,18.73
2017-09-30T03:23:09.052Z,18.75
2017-09-30T03:24:09.075Z,18.75
2017-09-30T03:25:09.365Z,18.75
2017-09-30T03:26:09.171Z,18.74
2017-09-30T03:27:09.145Z,18.83
2017-09-30T03:28:09.476Z,18.78
2017-09-30T03:29:09.202Z,18.77
2017-09-30T03:30:09.870Z,18.8
2017-09-30T03:31:09.343Z,18.88
2017-09-30T03:32:09.271Z,18.88
2017-09-30T03:33:09.282Z,18.89
2017-09-30T03:34:09.302Z,18.99
2017-09-30T03:35:09.755Z,18.93
2017-09-30T03:36:09.351Z,19
2017-09-30T03:37:09.688Z,18.92
2017-09-30T03:38:09.410Z,18.89
2017-09-30T03:39:09.434Z,18.95
2017-09-30T03:40:10.184Z,18.96
2017-09-30T03:41:09.979Z,18.92
2017-09-30T03:42:09.490Z,18.92
2017-09-30T03:43:09.513Z,18.89
2017-09-30T03:44:09.869Z,18.96
2017-09-30T03:45:09.554Z,18.99
2017-09-30T03:46:09.837Z,18.98
2017-09-30T03:47:09.939Z,18.96
2017-09-30T03:48:09.953Z,18.99
2017-09-30T03:49:09.981Z,18.95
2017-09-30T03:50:09.674Z,18.96
2017-09-30T03:51:09.695Z,18.93
2017-09-30T03:52:09.719Z,18.96
2017-09-30T03:53:09.748Z,18.98
2017-09-30T03:54:09.769Z,18.92
2017-09-30T03:55:09.871Z,18.95
2017-09-30T03:56:09.991Z,18.9
2017-09-30T03:57:09.885Z,18.98
2017-09-30T03:58:09.859Z,18.99
2017-09-30T03:59:09.881Z,19.02
2017-09-30T04:00:09.919Z,18.99
2017-09-30T04:01:09.925Z,18.84
2017-09-30T04:02:09.961Z,18.81
2017-09-30T04:03:09.971Z,18.86
2017-09-30T04:04:09.994Z,18.84
2017-09-30T04:05:10.025Z,18.86
2017-09-30T04:06:10.052Z,18.8
2017-09-30T04:07:10.063Z,18.78
2017-09-30T04:08:10.095Z,18.78
2017-09-30T04:09:10.121Z,18.73
2017-09-30T04:10:10.456Z,18.7
2017-09-30T04:11:10.159Z,18.66
2017-09-30T04:12:10.183Z,18.68
2017-09-30T04:13:10.204Z,18.73
2017-09-30T04:14:10.230Z,18.74
2017-09-30T04:15:10.428Z,18.74
2017-09-30T04:16:10.278Z,18.81
2017-09-30T04:17:10.308Z,18.75
2017-09-30T04:18:10.343Z,18.77
2017-09-30T04:19:10.343Z,18.78
2017-09-30T04:20:10.376Z,18.71
2017-09-30T04:21:10.402Z,18.8
2017-09-30T04:22:10.413Z,18.78
2017-09-30T04:23:10.437Z,18.73
2017-09-30T04:24:10.462Z,18.7
2017-09-30T04:25:10.795Z,18.73
2017-09-30T04:26:10.509Z,18.74
2017-09-30T04:27:10.530Z,18.73
2017-09-30T04:28:10.865Z,18.75
2017-09-30T04:29:10.580Z,18.73
2017-09-30T04:30:10.782Z,18.7
2017-09-30T04:31:10.638Z,18.74
2017-09-30T04:32:10.648Z,18.73
2017-09-30T04:33:10.675Z,18.75
2017-09-30T04:34:10.692Z,18.66
2017-09-30T04:35:11.049Z,18.53
2017-09-30T04:36:10.811Z,18.45
2017-09-30T04:37:10.774Z,18.47
2017-09-30T04:38:10.784Z,18.52
2017-09-30T04:39:11.119Z,18.45
2017-09-30T04:40:10.841Z,18.49
2017-09-30T04:41:11.182Z,18.5
2017-09-30T04:42:10.882Z,18.44
2017-09-30T04:43:10.910Z,18.49
2017-09-30T04:44:11.243Z,18.25
2017-09-30T04:45:10.952Z,18.29
2017-09-30T04:46:10.970Z,18.15
2017-09-30T04:47:10.995Z,18.26
2017-09-30T04:48:11.067Z,18.29
2017-09-30T04:49:11.042Z,18.38
2017-09-30T04:50:11.123Z,18.33
2017-09-30T04:51:11.084Z,18.34
2017-09-30T04:52:11.111Z,18.4
2017-09-30T04:53:11.132Z,18.43
2017-09-30T04:54:11.158Z,18.35
2017-09-30T04:55:11.177Z,18.34
2017-09-30T04:56:11.506Z,18.43
2017-09-30T04:57:11.533Z,18.44
2017-09-30T04:58:11.245Z,18.44
2017-09-30T04:59:11.266Z,18.43
2017-09-30T05:00:11.604Z,18.55
2017-09-30T05:01:11.317Z,18.53
2017-09-30T05:02:11.657Z,18.38
2017-09-30T05:03:11.366Z,18.47
2017-09-30T05:04:11.437Z,18.5
2017-09-30T05:05:11.414Z,18.45
2017-09-30T05:06:11.743Z,18.44
2017-09-30T05:07:11.761Z,18.52
2017-09-30T05:08:11.493Z,18.53
2017-09-30T05:09:11.498Z,18.47
2017-09-30T05:10:11.525Z,18.4
2017-09-30T05:11:11.549Z,18.45
2017-09-30T05:12:11.570Z,18.49
2017-09-30T05:13:11.623Z,18.44
2017-09-30T05:14:11.923Z,18.55
2017-09-30T05:15:11.636Z,18.5
2017-09-30T05:16:11.664Z,18.5
2017-09-30T05:17:11.704Z,18.47
2017-09-30T05:18:11.705Z,18.41
2017-09-30T05:19:11.731Z,18.55
2017-09-30T05:20:11.751Z,18.41
2017-09-30T05:21:11.826Z,18.47
2017-09-30T05:22:11.805Z,18.49
2017-09-30T05:23:11.822Z,18.5
2017-09-30T05:24:12.155Z,18.38
2017-09-30T05:25:11.871Z,18.35
2017-09-30T05:26:11.937Z,18.41
2017-09-30T05:27:11.920Z,18.56
2017-09-30T05:28:11.935Z,18.43
2017-09-30T05:29:11.960Z,18.5
2017-09-30T05:30:12.356Z,18.47
2017-09-30T05:31:12.009Z,18.52
2017-09-30T05:32:12.044Z,18.43
2017-09-30T05:33:12.055Z,18.4
2017-09-30T05:34:12.168Z,18.52
2017-09-30T05:35:12.101Z,18.5
2017-09-30T05:36:12.171Z,18.53
2017-09-30T05:37:12.146Z,18.52
2017-09-30T05:38:12.166Z,18.44
2017-09-30T05:39:12.197Z,18.53
2017-09-30T05:40:12.213Z,18.5
2017-09-30T05:41:12.246Z,18.6
2017-09-30T05:42:12.258Z,18.58
2017-09-30T05:43:12.281Z,18.62
2017-09-30T05:44:12.316Z,18.73
2017-09-30T05:45:12.338Z,18.75
2017-09-30T05:46:12.361Z,18.84
2017-09-30T05:47:12.380Z,18.9
2017-09-30T05:48:12.407Z,18.92
2017-09-30T05:49:12.421Z,18.95
2017-09-30T05:50:12.444Z,18.8
2017-09-30T05:51:12.518Z,18.81
2017-09-30T05:52:12.494Z,18.81
2017-09-30T05:53:12.531Z,18.78
2017-09-30T05:54:12.536Z,18.88
2017-09-30T05:55:12.870Z,18.75
2017-09-30T05:56:12.594Z,18.88
2017-09-30T05:57:12.607Z,18.83
2017-09-30T05:58:12.630Z,18.78
2017-09-30T05:59:12.656Z,18.84
2017-09-30T06:00:12.678Z,18.88
2017-09-30T06:01:12.707Z,18.92
2017-09-30T06:02:12.730Z,18.92
2017-09-30T06:03:12.764Z,18.95
2017-09-30T06:04:12.772Z,18.95
2017-09-30T06:05:12.821Z,18.81
2017-09-30T06:06:12.869Z,18.84
2017-09-30T06:07:13.165Z,18.95
2017-09-30T06:08:12.866Z,18.92
2017-09-30T06:09:12.887Z,19.02
2017-09-30T06:10:12.933Z,19.04
2017-09-30T06:11:12.946Z,18.99
2017-09-30T06:12:12.958Z,18.89
2017-09-30T06:13:12.980Z,18.96
2017-09-30T06:14:13.009Z,18.83
2017-09-30T06:15:13.033Z,18.89
2017-09-30T06:16:13.365Z,18.83
2017-09-30T06:17:13.081Z,18.81
2017-09-30T06:18:13.100Z,18.77
2017-09-30T06:19:13.439Z,18.78
2017-09-30T06:20:13.502Z,18.78
2017-09-30T06:21:13.177Z,18.78
2017-09-30T06:22:13.197Z,18.88
2017-09-30T06:23:13.579Z,18.95
2017-09-30T06:24:13.243Z,18.99
2017-09-30T06:25:13.267Z,18.84
2017-09-30T06:26:13.287Z,18.93
2017-09-30T06:27:13.313Z,18.88
2017-09-30T06:28:13.338Z,18.89
2017-09-30T06:29:13.359Z,18.92
2017-09-30T06:30:13.379Z,18.9
2017-09-30T06:31:13.405Z,18.93
2017-09-30T06:32:13.434Z,19.15
2017-09-30T06:33:13.458Z,19.07
2017-09-30T06:34:13.479Z,19.14
2017-09-30T06:35:13.519Z,19.21
2017-09-30T06:36:13.524Z,19.18
2017-09-30T06:37:13.590Z,19.27
2017-09-30T06:38:13.620Z,19.15
2017-09-30T06:39:13.593Z,19.19
2017-09-30T06:40:13.621Z,19.14
2017-09-30T06:41:13.653Z,19.16
2017-09-30T06:42:13.667Z,19.09
2017-09-30T06:43:14.009Z,19.02
2017-09-30T06:44:13.712Z,19.07
2017-09-30T06:45:13.737Z,19.02
2017-09-30T06:46:14.070Z,19.24
2017-09-30T06:47:13.783Z,19.34
2017-09-30T06:48:14.119Z,19.44
2017-09-30T06:49:13.870Z,19.56
2017-09-30T06:50:13.854Z,19.56
2017-09-30T06:51:13.874Z,19.62
2017-09-30T06:52:13.909Z,19.66
2017-09-30T06:53:13.972Z,19.74
2017-09-30T06:54:13.950Z,19.67
2017-09-30T06:55:13.984Z,19.71
2017-09-30T06:56:14.001Z,19.76
2017-09-30T06:57:14.046Z,19.82
2017-09-30T06:58:14.067Z,19.88
2017-09-30T06:59:14.080Z,19.94
2017-09-30T07:00:14.094Z,19.84
2017-09-30T07:01:14.118Z,19.82
2017-09-30T07:02:14.759Z,19.85
2017-09-30T07:03:14.163Z,19.92
2017-09-30T07:04:14.190Z,19.88
2017-09-30T07:05:14.216Z,19.92
2017-09-30T07:06:14.240Z,19.96
2017-09-30T07:07:14.260Z,20.03
2017-09-30T07:08:14.283Z,20.02
2017-09-30T07:09:14.313Z,20.07
2017-09-30T07:10:14.687Z,20.21
2017-09-30T07:11:14.361Z,20.18
2017-09-30T07:12:14.386Z,20.31
2017-09-30T07:13:14.421Z,20.25
2017-09-30T07:14:14.427Z,20.26
2017-09-30T07:15:14.457Z,20.34
2017-09-30T07:16:14.489Z,20.32
2017-09-30T07:17:14.499Z,20.25
2017-09-30T07:18:14.836Z,20.32
2017-09-30T07:19:14.551Z,20.28
2017-09-30T07:20:14.634Z,20.28
2017-09-30T07:21:15.225Z,20.28
2017-09-30T07:22:14.630Z,20.31
2017-09-30T07:23:14.650Z,20.41
2017-09-30T07:24:14.672Z,20.47
2017-09-30T07:25:15.024Z,20.48
2017-09-30T07:26:14.724Z,20.58
2017-09-30T07:27:14.751Z,20.65
2017-09-30T07:28:14.766Z,20.63
2017-09-30T07:29:14.791Z,20.69
2017-09-30T07:30:14.816Z,20.72
2017-09-30T07:31:14.898Z,20.85
2017-09-30T07:32:14.875Z,20.77
2017-09-30T07:33:14.891Z,20.84
2017-09-30T07:34:14.925Z,20.92
2017-09-30T07:35:14.949Z,20.95
2017-09-30T07:36:14.966Z,20.99
2017-09-30T07:37:14.989Z,20.95
2017-09-30T07:38:15.014Z,21.02
2017-09-30T07:39:15.041Z,20.99
2017-09-30T07:40:15.071Z,20.95
2017-09-30T07:41:15.096Z,20.95
2017-09-30T07:42:15.114Z,21.03
2017-09-30T07:43:15.138Z,21.02
2017-09-30T07:44:15.472Z,21.05
2017-09-30T07:45:15.498Z,21.02
2017-09-30T07:46:15.262Z,21.11
2017-09-30T07:47:15.237Z,21
2017-09-30T07:48:15.273Z,21.05
2017-09-30T07:49:15.292Z,20.95
2017-09-30T07:50:15.317Z,20.99
2017-09-30T07:51:15.348Z,20.78
2017-09-30T07:52:15.370Z,20.77
2017-09-30T07:53:15.399Z,20.75
2017-09-30T07:54:15.408Z,20.81
2017-09-30T07:55:15.742Z,20.84
2017-09-30T07:56:15.465Z,20.95
2017-09-30T07:57:15.486Z,21.05
2017-09-30T07:58:15.508Z,21
2017-09-30T07:59:15.536Z,21.22
2017-09-30T08:00:15.572Z,21.22
2017-09-30T08:01:15.637Z,21.29
2017-09-30T08:02:15.623Z,21.32
2017-09-30T08:03:15.636Z,21.39
2017-09-30T08:04:15.669Z,21.4
2017-09-30T08:05:15.684Z,21.46
2017-09-30T08:06:15.715Z,21.5
2017-09-30T08:07:15.763Z,21.58
2017-09-30T08:08:15.760Z,21.7
2017-09-30T08:09:16.091Z,21.72
2017-09-30T08:10:15.810Z,21.79
2017-09-30T08:11:15.836Z,21.75
2017-09-30T08:12:15.861Z,21.8
2017-09-30T08:13:16.225Z,21.85
2017-09-30T08:14:16.219Z,21.82
2017-09-30T08:15:15.937Z,21.95
2017-09-30T08:16:16.017Z,22
2017-09-30T08:17:15.990Z,22.18
2017-09-30T08:18:16.015Z,22.14
2017-09-30T08:19:16.039Z,22.22
2017-09-30T08:20:16.064Z,22.35
2017-09-30T08:21:16.099Z,22.3
2017-09-30T08:22:16.119Z,22.35
2017-09-30T08:23:16.450Z,22.36
2017-09-30T08:24:16.166Z,22.5
2017-09-30T08:25:16.502Z,22.41
2017-09-30T08:26:16.240Z,22.44
2017-09-30T08:27:16.588Z,22.45
2017-09-30T08:28:16.272Z,22.48
2017-09-30T08:29:16.298Z,22.53
2017-09-30T08:30:16.367Z,22.57
2017-09-30T08:31:16.351Z,22.57
2017-09-30T08:32:16.676Z,22.45
2017-09-30T08:33:16.417Z,22.43
2017-09-30T08:34:16.432Z,22.5
2017-09-30T08:35:16.449Z,22.38
2017-09-30T08:36:16.479Z,22.35
2017-09-30T08:37:16.828Z,22.39
2017-09-30T08:38:16.524Z,22.3
2017-09-30T08:39:16.549Z,22.29
2017-09-30T08:40:16.586Z,22.18
2017-09-30T08:41:16.929Z,22.26
2017-09-30T08:42:16.628Z,22.23
2017-09-30T08:43:16.658Z,22.36
2017-09-30T08:44:16.682Z,22.47
2017-09-30T08:45:16.705Z,22.44
2017-09-30T08:46:16.730Z,22.45
2017-09-30T08:47:17.066Z,22.63
2017-09-30T08:48:16.782Z,22.62
2017-09-30T08:49:16.804Z,22.8
2017-09-30T08:50:17.193Z,22.72
2017-09-30T08:51:16.859Z,22.81
2017-09-30T08:52:16.884Z,22.81
2017-09-30T08:53:16.903Z,22.88
2017-09-30T08:54:16.937Z,22.83
2017-09-30T08:55:16.960Z,22.84
2017-09-30T08:56:16.989Z,22.93
2017-09-30T08:57:17.012Z,23
2017-09-30T08:58:17.035Z,22.98
2017-09-30T08:59:17.060Z,23.06
2017-09-30T09:00:17.397Z,23.05
2017-09-30T09:01:17.115Z,23.06
2017-09-30T09:02:17.137Z,23.12
2017-09-30T09:03:17.166Z,23.15
2017-09-30T09:04:17.206Z,23.17
2017-09-30T09:05:17.220Z,23.31
2017-09-30T09:06:17.245Z,23.27
2017-09-30T09:07:17.279Z,23.37
2017-09-30T09:08:17.303Z,23.27
2017-09-30T09:09:17.379Z,23.34
2017-09-30T09:10:17.345Z,23.46
2017-09-30T09:11:17.385Z,23.58
2017-09-30T09:12:17.709Z,23.62
2017-09-30T09:13:17.738Z,23.68
2017-09-30T09:14:17.452Z,23.62
2017-09-30T09:15:17.481Z,23.69
2017-09-30T09:16:18.153Z,23.8
2017-09-30T09:17:17.535Z,23.93
2017-09-30T09:18:17.578Z,23.87
2017-09-30T09:19:17.912Z,23.95
2017-09-30T09:20:17.918Z,23.83
2017-09-30T09:21:17.978Z,23.81
2017-09-30T09:22:17.982Z,23.91
2017-09-30T09:23:17.693Z,23.83
2017-09-30T09:24:18.075Z,23.78
2017-09-30T09:25:17.763Z,23.8
2017-09-30T09:26:17.784Z,23.77
2017-09-30T09:27:17.823Z,23.62
2017-09-30T09:28:17.826Z,23.71
2017-09-30T09:29:18.160Z,23.74
2017-09-30T09:30:17.883Z,23.87
2017-09-30T09:31:17.902Z,23.77
2017-09-30T09:32:17.930Z,23.73
2017-09-30T09:33:18.268Z,23.56
2017-09-30T09:34:18.001Z,23.41
2017-09-30T09:35:18.322Z,23.54
2017-09-30T09:36:18.036Z,23.68
2017-09-30T09:37:18.063Z,23.92
2017-09-30T09:38:18.098Z,23.93
2017-09-30T09:39:18.118Z,24.03
2017-09-30T09:40:18.143Z,23.95
2017-09-30T09:41:18.224Z,24.06
2017-09-30T09:42:18.215Z,24.16
2017-09-30T09:43:18.225Z,24.35
2017-09-30T09:44:18.261Z,24.5
2017-09-30T09:45:18.279Z,24.63
2017-09-30T09:46:18.305Z,24.76
2017-09-30T09:47:18.336Z,24.98
2017-09-30T09:48:18.362Z,25.1
2017-09-30T09:49:18.390Z,25.16
2017-09-30T09:50:18.435Z,25.33
2017-09-30T09:51:18.453Z,25.6
2017-09-30T09:52:18.471Z,25.83
2017-09-30T09:53:18.501Z,25.78
2017-09-30T09:54:18.532Z,25.9
2017-09-30T09:55:18.557Z,25.96
2017-09-30T09:56:18.596Z,26.02
2017-09-30T09:57:18.618Z,26.05
2017-09-30T09:58:18.689Z,26.18
2017-09-30T09:59:18.673Z,26.37
2017-09-30T10:00:18.698Z,26.47
2017-09-30T10:01:18.731Z,26.6
2017-09-30T10:02:19.061Z,26.63
2017-09-30T10:03:18.781Z,26.62
2017-09-30T10:04:18.807Z,26.74
2017-09-30T10:05:18.838Z,26.93
2017-09-30T10:06:18.868Z,27
2017-09-30T10:07:18.911Z,27.17
2017-09-30T10:08:19.236Z,27.26
2017-09-30T10:09:18.953Z,27.22
2017-09-30T10:10:19.003Z,27.32
2017-09-30T10:11:19.011Z,27.33
2017-09-30T10:12:19.037Z,27.48
2017-09-30T10:13:19.165Z,27.45
2017-09-30T10:14:19.411Z,27.45
2017-09-30T10:15:19.127Z,27.44
2017-09-30T10:16:19.168Z,27.37
2017-09-30T10:17:19.181Z,27.14
2017-09-30T10:18:19.216Z,27.1
2017-09-30T10:19:19.252Z,26.84
2017-09-30T10:20:19.267Z,26.77
2017-09-30T10:21:19.290Z,26.88
2017-09-30T10:22:19.632Z,26.88
2017-09-30T10:23:19.362Z,26.74
2017-09-30T10:24:19.387Z,26.59
2017-09-30T10:25:19.405Z,26.6
2017-09-30T10:26:19.436Z,26.6
2017-09-30T10:27:19.468Z,26.48
2017-09-30T10:28:19.490Z,26.48
2017-09-30T10:29:19.522Z,26.28
2017-09-30T10:30:19.600Z,26.37
2017-09-30T10:31:19.581Z,26.13
2017-09-30T10:32:19.608Z,26.06
2017-09-30T10:33:19.640Z,26.02
2017-09-30T10:34:19.677Z,26.15
2017-09-30T10:35:19.702Z,26.16
2017-09-30T10:36:19.714Z,26.26
2017-09-30T10:37:19.754Z,26.13
2017-09-30T10:38:19.782Z,26.15
2017-09-30T10:39:19.798Z,26.05
2017-09-30T10:40:20.168Z,26.07
2017-09-30T10:41:19.855Z,26.07
2017-09-30T10:42:19.888Z,26.18
2017-09-30T10:43:19.913Z,26.21
2017-09-30T10:44:19.940Z,26.22
2017-09-30T10:45:19.977Z,26.37
2017-09-30T10:46:19.996Z,26.38
2017-09-30T10:47:20.027Z,26.48
2017-09-30T10:48:20.060Z,26.48
2017-09-30T10:49:20.130Z,26.47
2017-09-30T10:50:20.126Z,26.52
2017-09-30T10:51:20.137Z,26.52
2017-09-30T10:52:20.163Z,26.45
2017-09-30T10:53:20.193Z,26.66
2017-09-30T10:54:20.223Z,26.55
2017-09-30T10:55:20.251Z,26.47
2017-09-30T10:56:20.278Z,26.51
2017-09-30T10:57:20.311Z,26.55
2017-09-30T10:58:20.335Z,26.59
2017-09-30T10:59:20.366Z,26.74
2017-09-30T11:00:20.393Z,26.62
2017-09-30T11:01:20.419Z,26.41
2017-09-30T11:02:20.446Z,26.47
2017-09-30T11:03:20.476Z,26.59
2017-09-30T11:04:20.563Z,26.59
2017-09-30T11:05:20.533Z,26.33
2017-09-30T11:06:20.563Z,26.36
2017-09-30T11:07:20.904Z,26.47
2017-09-30T11:08:20.622Z,26.31
2017-09-30T11:09:20.649Z,26.62
2017-09-30T11:10:20.677Z,26.59
2017-09-30T11:11:20.705Z,26.45
2017-09-30T11:12:20.730Z,26.26
2017-09-30T11:13:20.764Z,26.33
2017-09-30T11:14:20.796Z,26.58
2017-09-30T11:15:20.817Z,26.47
2017-09-30T11:16:20.845Z,26.52
2017-09-30T11:17:20.879Z,26.56
2017-09-30T11:18:20.901Z,26.73
2017-09-30T11:19:20.951Z,26.95
2017-09-30T11:20:20.968Z,27.15
2017-09-30T11:21:21.606Z,27.2
2017-09-30T11:22:21.167Z,27.21
2017-09-30T11:23:21.063Z,27.45
2017-09-30T11:24:21.088Z,27.42
2017-09-30T11:25:21.109Z,27.75
2017-09-30T11:26:21.139Z,27.85
2017-09-30T11:27:21.169Z,27.83
2017-09-30T11:28:21.202Z,28.01
2017-09-30T11:29:21.230Z,28.12
2017-09-30T11:30:21.256Z,28.3
2017-09-30T11:31:21.287Z,28.42
2017-09-30T11:32:21.310Z,28.45
2017-09-30T11:33:21.344Z,28.57
2017-09-30T11:34:21.382Z,28.63
2017-09-30T11:35:22.041Z,28.67
2017-09-30T11:36:21.426Z,28.66
2017-09-30T11:37:21.466Z,28.81
2017-09-30T11:38:21.491Z,29.02
2017-09-30T11:39:21.809Z,29.16
2017-09-30T11:40:21.863Z,29.36
2017-09-30T11:41:21.896Z,29.23
2017-09-30T11:42:21.619Z,29.12
2017-09-30T11:43:21.966Z,29.2
2017-09-30T11:44:21.684Z,29.26
2017-09-30T11:45:21.718Z,29.31
2017-09-30T11:46:21.784Z,29.36
2017-09-30T11:47:21.774Z,29.51
2017-09-30T11:48:21.806Z,29.6
2017-09-30T11:49:22.139Z,29.76
2017-09-30T11:50:22.062Z,29.98
2017-09-30T11:51:21.931Z,29.95
2017-09-30T11:52:21.917Z,29.98
2017-09-30T11:53:22.258Z,29.94
2017-09-30T11:54:21.977Z,30
2017-09-30T11:55:22.007Z,30.12
2017-09-30T11:56:22.039Z,30.18
2017-09-30T11:57:22.078Z,30.34
2017-09-30T11:58:22.102Z,30.06
2017-09-30T11:59:22.136Z,30.15
2017-09-30T12:00:22.165Z,30.09
2017-09-30T12:01:22.267Z,30.19
2017-09-30T12:02:22.595Z,30.24
2017-09-30T12:03:22.256Z,30.4
2017-09-30T12:04:22.287Z,30.13
2017-09-30T12:05:22.640Z,30.27
2017-09-30T12:06:22.352Z,30.34
2017-09-30T12:07:22.696Z,30.46
2017-09-30T12:08:22.419Z,30.51
2017-09-30T12:09:22.447Z,30.35
2017-09-30T12:10:22.472Z,30.18
2017-09-30T12:11:22.814Z,30.09
2017-09-30T12:12:22.865Z,29.95
2017-09-30T12:13:22.573Z,30
2017-09-30T12:14:22.599Z,29.82
2017-09-30T12:15:22.629Z,30
2017-09-30T12:16:22.659Z,29.81
2017-09-30T12:17:22.700Z,29.68
2017-09-30T12:18:22.746Z,29.59
2017-09-30T12:19:22.760Z,29.31
2017-09-30T12:20:22.835Z,29.39
2017-09-30T12:21:22.815Z,29.53
2017-09-30T12:22:22.850Z,29.51
2017-09-30T12:23:22.878Z,29.65
2017-09-30T12:24:22.906Z,29.76
2017-09-30T12:25:22.939Z,29.95
2017-09-30T12:26:22.984Z,29.98
2017-09-30T12:27:23.004Z,30
2017-09-30T12:28:23.027Z,29.94
2017-09-30T12:29:23.056Z,29.88
2017-09-30T12:30:23.092Z,30.03
2017-09-30T12:31:23.119Z,30.13
2017-09-30T12:32:23.152Z,30.34
2017-09-30T12:33:23.182Z,30.43
2017-09-30T12:34:23.213Z,30.46
2017-09-30T12:35:23.240Z,30.57
2017-09-30T12:36:23.274Z,30.72
2017-09-30T12:37:23.304Z,30.68
2017-09-30T12:38:23.341Z,30.61
2017-09-30T12:39:23.367Z,30.7
2017-09-30T12:40:23.717Z,30.8
2017-09-30T12:41:23.428Z,30.8
2017-09-30T12:42:23.460Z,30.88
2017-09-30T12:43:23.496Z,30.66
2017-09-30T12:44:23.519Z,30.43
2017-09-30T12:45:23.548Z,30.47
2017-09-30T12:46:24.369Z,30.34
2017-09-30T12:47:23.622Z,30.28
2017-09-30T12:48:23.641Z,30.23
2017-09-30T12:49:23.690Z,30.32
2017-09-30T12:50:23.725Z,30.15
2017-09-30T12:51:23.740Z,30
2017-09-30T12:52:23.769Z,30.12
2017-09-30T12:53:23.799Z,30.25
2017-09-30T12:54:23.826Z,30.23
2017-09-30T12:55:23.867Z,30.35